Latest Weather Observations for Walgett

IDN60801

Issued at 7:03 pm EDT Monday 23 October 2017 (issued every 30 minutes, with the page automatically refreshed every 10 minutes)

About weather observations | Map of weather stations | Latest weather observations for NSW | Other Formats
Station Details ID: 052088 Name: WALGETT AIRPORT AWS Lat: -30.04 Lon: 148.12 Height: 133.0 m
Data from the previous 72 hours. | See also: Recent months at Walgett
Date/Time
EDT
Temp
°C
App
Temp
°C
Dew
Point
°C
Rel
Hum
%
Delta-T
°C
Wind Press
QNH
hPa
Press
MSL
hPa
Rain since
9am
mm
Dir  Spd
km/h
Gust
km/h
Spd
kts
Gust
kts
23/07:00pm 24.8 20.4 2.9 24 10.7 SSW 15 20 8 11 1014.4 1014.0 0.0
23/06:30pm 25.5 21.1 2.9 23 11.1 SSW 15 20 8 11 1014.0 1013.6 0.0
23/06:00pm 25.2 19.9 2.0 22 11.2 S 19 32 10 17 1013.7 1013.3 0.0
23/05:30pm 26.4 21.5 2.3 21 11.8 SSW 17 22 9 12 1013.6 1013.2 0.0
23/05:00pm 26.8 21.9 2.0 20 12.1 SSW 17 30 9 16 1013.3 1012.9 0.0
23/04:30pm 26.8 21.6 2.7 21 11.9 SW 19 32 10 17 1013.5 1013.1 0.0
23/04:00pm 26.0 20.7 2.0 21 11.6 SSW 19 30 10 16 1013.6 1013.2 0.0
23/03:30pm 27.0 22.6 2.8 21 12.0 SW 15 30 8 16 1013.7 1013.3 0.0
23/03:00pm 25.5 19.5 0.9 20 11.6 S 22 35 12 19 1014.0 1013.6 0.0
23/02:30pm 26.8 22.6 4.0 23 11.5 S 15 28 8 15 1014.1 1013.7 0.0
23/02:00pm 25.4 20.5 4.0 25 10.7 S 19 32 10 17 1014.5 1014.1 0.0
23/01:30pm 25.8 21.8 4.9 26 10.6 SSW 15 28 8 15 1014.7 1014.3 0.0
23/01:00pm 25.1 20.1 4.8 27 10.3 SSW 20 32 11 17 1015.1 1014.7 0.0
23/12:30pm 23.9 18.9 4.8 29 9.6 S 20 32 11 17 1015.5 1015.1 0.0
23/12:00pm 24.4 20.2 5.7 30 9.6 SW 17 33 9 18 1015.8 1015.4 0.0
23/11:30am 23.3 18.4 5.2 31 9.1 SSW 20 28 11 15 1016.0 1015.6 0.0
23/11:00am 23.9 19.9 6.7 33 8.9 S 17 26 9 14 1016.2 1015.8 0.0
23/10:30am 21.6 18.4 6.7 38 7.6 S 13 22 7 12 1016.3 1015.9 0.0
23/10:00am 20.7 16.8 7.3 42 6.9 S 17 22 9 12 1016.3 1015.9 0.0
23/09:30am 20.6 17.5 8.9 47 6.2 SSE 15 22 8 12 1016.1 1015.7 0.0
23/09:00am 19.0 16.2 8.6 51 5.4 SSW 13 19 7 10 1015.8 1015.4 0.0
23/08:30am 17.9 14.3 8.5 54 4.9 S 17 20 9 11 1015.6 1015.2 0.0
23/08:00am 16.2 13.0 8.4 60 4.0 SSW 15 19 8 10 1015.3 1014.9 0.0
23/07:30am 14.0 11.5 8.4 69 2.8 SSW 11 17 6 9 1015.1 1014.7 0.0
23/07:00am 10.5 8.5 7.0 79 1.7 SSW 7 9 4 5 1014.8 1014.4 0.0
23/06:30am 9.8 7.2 6.3 79 1.6 SW 9 11 5 6 1014.4 1014.0 0.0
23/06:00am 10.4 8.3 6.5 77 1.8 SW 7 9 4 5 1014.2 1013.8 0.0
23/05:30am 10.4 8.5 6.5 77 1.8 WSW 6 6 3 3 1014.0 1013.6 0.0
23/05:00am 10.2 8.0 6.2 76 1.9 WSW 7 9 4 5 1013.7 1013.3 0.0
23/04:30am 10.2 7.6 6.2 76 1.9 WSW 9 9 5 5 1013.5 1013.1 0.0
23/04:00am 11.1 9.0 6.5 73 2.2 SW 7 9 4 5 1013.6 1013.2 0.0
23/03:30am 10.4 7.7 5.6 72 2.2 WSW 9 11 5 6 1013.7 1013.3 0.0
23/03:00am 11.6 8.6 6.1 69 2.6 WSW 11 13 6 7 1013.9 1013.5 0.0
23/02:53am 11.7 8.7 6.2 69 2.6 W 11 13 6 7 1013.9 1013.5 0.0
23/02:30am 11.7 8.7 6.2 69 2.6 WSW 11 13 6 7 1014.1 1013.7 0.0
23/02:00am 12.1 9.6 6.4 68 2.7 WSW 9 11 5 6 1014.3 1013.9 0.0
23/01:30am 12.5 10.2 5.9 64 3.1 SW 7 7 4 4 1014.5 1014.1 0.0
23/01:00am 13.3 10.6 5.7 60 3.6 SW 9 13 5 7 1014.7 1014.3 0.0
23/12:48am 13.1 10.4 5.5 60 3.6 SW 9 11 5 6 1014.7 1014.3 0.0
23/12:45am 13.1 10.4 5.5 60 3.6 SSW 9 11 5 6 1014.7 1014.3 0.0
23/12:30am 13.9 10.9 5.8 58 3.9 SSW 11 13 6 7 1014.7 1014.3 0.0
23/12:11am 13.7 10.7 5.8 59 3.8 SSW 11 13 6 7 1014.7 1014.3 0.0
23/12:00am 13.6 10.6 6.0 60 3.6 SSW 11 13 6 7 1014.8 1014.4 0.0
 
Date/Time
EDT
Temp
°C
App
Temp
°C
Dew
Point
°C
Rel
Hum
%
Delta-T
°C
Wind Press
QNH
hPa
Press
MSL
hPa
Rain since
9am
mm
Dir  Spd
km/h
Gust
km/h
Spd
kts
Gust
kts
22/11:30pm 14.0 11.0 5.9 58 3.9 SSW 11 13 6 7 1014.7 1014.3 0.0
22/11:00pm 13.8 10.7 5.4 57 4.0 SSW 11 13 6 7 1014.6 1014.2 0.0
22/10:30pm 14.4 11.2 5.0 53 4.4 SSW 11 13 6 7 1014.5 1014.1 0.0
22/10:00pm 14.7 11.8 4.7 51 4.7 SSW 9 9 5 5 1014.3 1013.9 0.0
22/09:44pm 14.8 11.9 4.5 50 4.8 SSW 9 11 5 6 1014.3 1013.9 0.0
22/09:30pm 15.2 12.2 4.3 48 5.1 SSW 9 11 5 6 1014.3 1013.9 0.0
22/09:16pm 16.4 13.3 3.8 43 5.9 SSW 9 9 5 5 1014.2 1013.8 0.0
22/09:14pm 16.3 13.6 3.7 43 5.9 SSW 7 9 4 5 1014.2 1013.8 0.0
22/09:00pm 16.3 13.6 3.7 43 5.9 SSW 7 9 4 5 1014.1 1013.7 0.0
22/08:50pm 17.0 14.3 3.7 41 6.2 SW 7 9 4 5 1014.0 1013.6 0.0
22/08:33pm 18.3 15.1 3.0 36 7.1 SSW 9 11 5 6 1014.0 1013.6 0.0
22/08:30pm 18.3 15.1 3.0 36 7.1 SSW 9 11 5 6 1013.9 1013.5 0.0
22/08:00pm 19.4 16.1 2.7 33 7.8 SW 9 13 5 7 1013.5 1013.1 0.0
22/07:54pm 19.6 16.0 2.9 33 7.8 SSW 11 15 6 8 1013.4 1013.0 0.0
22/07:30pm 21.1 17.1 2.9 30 8.6 SSW 13 17 7 9 1013.1 1012.7 0.0
22/07:00pm 22.7 17.9 2.8 27 9.5 SSW 17 22 9 12 1012.7 1012.3 0.0
22/06:30pm 23.7 18.5 2.5 25 10.2 SW 19 24 10 13 1012.2 1011.8 0.0
22/06:00pm 24.6 18.5 2.7 24 10.6 SSW 24 32 13 17 1012.0 1011.6 0.0
22/05:30pm 25.3 19.5 2.1 22 11.2 SW 22 30 12 16 1011.8 1011.4 0.0
22/05:00pm 25.3 19.1 2.1 22 11.2 SSW 24 35 13 19 1011.6 1011.2 0.0
22/04:48pm 25.6 20.1 1.7 21 11.5 SW 20 32 11 17 1011.6 1011.2 0.0
22/04:30pm 25.4 20.0 2.2 22 11.2 WSW 20 35 11 19 1011.6 1011.2 0.0
22/04:00pm 26.0 20.6 2.7 22 11.4 WSW 20 39 11 21 1011.6 1011.2 0.0
22/03:30pm 26.7 21.9 4.5 24 11.3 WSW 19 32 10 17 1011.9 1011.5 0.0
22/03:00pm 25.2 20.1 4.3 26 10.5 SW 20 35 11 19 1012.1 1011.7 0.0
22/02:55pm 25.2 20.3 4.9 27 10.3 WSW 20 28 11 15 1012.2 1011.8 0.0
22/02:30pm 24.7 20.6 6.0 30 9.6 WSW 17 28 9 15 1012.5 1012.1 0.0
22/02:00pm 24.6 20.2 6.4 31 9.5 WSW 19 28 10 15 1012.8 1012.4 0.0
22/01:49pm 25.7 21.5 7.3 31 9.8 WSW 19 32 10 17 1012.9 1012.5 0.0
22/01:39pm 25.4 21.1 7.1 31 9.7 WSW 19 33 10 18 1013.1 1012.7 0.0
22/01:30pm 25.4 21.6 7.5 32 9.5 WSW 17 26 9 14 1013.1 1012.7 0.0
22/01:00pm 24.0 20.3 8.0 36 8.5 SW 17 28 9 15 1013.6 1013.2 0.0
22/12:38pm 24.0 20.2 7.6 35 8.7 W 17 28 9 15 1013.8 1013.4 0.0
22/12:30pm 24.2 20.6 8.2 36 8.6 SW 17 30 9 16 1013.9 1013.5 0.0
22/12:18pm 23.5 20.8 9.1 40 7.8 WSW 13 20 7 11 1014.0 1013.6 0.0
22/12:14pm 23.4 20.6 8.7 39 7.9 SW 13 20 7 11 1014.2 1013.8 0.0
22/12:01pm 23.0 20.2 8.7 40 7.7 WSW 13 24 7 13 1014.3 1013.9 0.0
22/12:00pm 22.9 20.0 8.2 39 7.8 WSW 13 24 7 13 1014.3 1013.9 0.0
22/11:58am 22.7 19.3 7.7 38 7.9 SW 15 24 8 13 1014.4 1014.0 0.0
22/11:37am 23.0 21.0 10.1 44 7.1 SW 11 20 6 11 1014.6 1014.2 0.0
22/11:30am 22.8 21.1 9.9 44 7.1 SSE 9 19 5 10 1014.7 1014.3 0.0
22/11:26am 22.6 19.9 9.0 42 7.3 SSW 13 24 7 13 1014.8 1014.4 0.0
22/11:09am 22.5 20.0 9.6 44 7.0 SW 13 24 7 13 1015.0 1014.6 0.0
22/11:00am 22.5 20.8 10.0 45 6.8 SW 9 17 5 9 1015.0 1014.6 0.0
22/10:30am 21.2 19.2 10.1 49 6.0 WSW 11 17 6 9 1015.2 1014.8 0.0
22/10:00am 20.3 18.7 10.1 52 5.5 SSW 9 15 5 8 1015.2 1014.8 0.0
22/09:30am 19.0 17.2 9.5 54 5.1 S 9 13 5 7 1015.1 1014.7 0.0
22/09:00am 17.9 16.7 9.5 58 4.4 SE 6 9 3 5 1015.0 1014.6 0.0
22/08:30am 16.9 15.3 10.1 64 3.6 SSE 9 11 5 6 1014.8 1014.4 0.0
22/08:00am 15.3 14.1 10.3 72 2.6 S 7 9 4 5 1014.6 1014.2 0.0
22/07:30am 12.2 12.6 11.3 94 0.5 CALM 0 0 0 0 1014.3 1013.9 0.0
22/07:00am 10.6 10.7 10.0 96 0.3 CALM 0 0 0 0 1014.2 1013.8 0.0
22/06:30am 9.4 8.0 8.8 96 0.3 SSE 6 9 3 5 1014.1 1013.7 0.0
22/06:00am 8.9 7.2 7.5 91 0.7 S 6 7 3 4 1013.9 1013.5 0.0
22/05:30am 9.5 9.1 8.3 92 0.6 CALM 0 0 0 0 1013.7 1013.3 0.0
22/05:00am 10.0 9.7 8.6 91 0.7 CALM 0 0 0 0 1013.6 1013.2 0.0
22/04:30am 10.1 8.6 8.4 89 0.8 SSW 6 7 3 4 1013.6 1013.2 0.0
22/04:20am 10.3 8.6 8.4 88 0.9 SW 7 11 4 6 1013.8 1013.4 0.0
22/04:00am 10.5 9.1 8.9 90 0.8 SSW 6 13 3 7 1013.9 1013.5 0.0
22/03:54am 10.8 10.6 8.9 88 0.9 CALM 0 0 0 0 1013.9 1013.5 0.0
22/03:30am 11.2 11.0 8.9 86 1.1 CALM 0 0 0 0 1013.9 1013.5 0.0
22/03:00am 11.7 11.5 9.1 84 1.3 CALM 0 0 0 0 1014.1 1013.7 0.0
22/02:30am 12.8 12.7 9.4 80 1.7 CALM 0 0 0 0 1014.4 1014.0 0.0
22/02:06am 13.1 13.0 9.5 79 1.8 CALM 0 0 0 0 1014.7 1014.3 0.0
22/02:00am 13.5 13.4 9.4 76 2.1 CALM 0 0 0 0 1014.8 1014.4 0.0
22/01:59am 13.5 13.4 9.6 77 2.0 CALM 0 0 0 0 1014.8 1014.4 0.0
22/01:30am 14.2 14.1 9.6 74 2.4 CALM 0 0 0 0 1015.1 1014.7 0.0
22/01:21am 14.6 13.8 9.6 72 2.6 SE 4 7 2 4 1015.2 1014.8 0.0
22/01:00am 15.0 13.0 10.0 72 2.6 SE 11 20 6 11 1015.4 1015.0 0.0
22/12:46am 14.4 14.3 9.6 73 2.5 CALM 0 0 0 0 1015.4 1015.0 0.0
22/12:30am 14.1 13.0 9.9 76 2.2 WSW 6 7 3 4 1015.6 1015.2 0.0
22/12:23am 14.2 12.9 9.2 72 2.6 WSW 6 7 3 4 1015.6 1015.2 0.0
22/12:15am 14.1 13.2 9.1 72 2.6 WSW 4 6 2 3 1015.6 1015.2 0.0
22/12:00am 14.4 12.9 9.2 71 2.7 WSW 7 7 4 4 1015.6 1015.2 0.0
 
Date/Time
EDT
Temp
°C
App
Temp
°C
Dew
Point
°C
Rel
Hum
%
Delta-T
°C
Wind Press
QNH
hPa
Press
MSL
hPa
Rain since
9am
mm
Dir  Spd
km/h
Gust
km/h
Spd
kts
Gust
kts
21/11:45pm 14.3 13.0 9.1 71 2.7 SW 6 7 3 4 1015.6 1015.2 0.0
21/11:30pm 14.2 12.6 8.8 70 2.7 SW 7 9 4 5 1015.6 1015.2 0.0
21/11:00pm 14.7 13.2 8.6 67 3.1 SSW 6 7 3 4 1015.7 1015.3 0.0
21/10:50pm 15.0 13.3 8.5 65 3.3 SSW 7 9 4 5 1015.7 1015.3 0.0
21/10:31pm 15.8 13.8 8.5 62 3.7 SSW 9 11 5 6 1015.7 1015.3 0.0
21/10:30pm 15.8 13.8 8.5 62 3.7 SSW 9 11 5 6 1015.7 1015.3 0.0
21/10:00pm 17.3 15.0 9.0 58 4.3 SSW 11 15 6 8 1015.8 1015.4 0.0
21/09:30pm 16.8 13.9 8.2 57 4.4 SSW 13 15 7 8 1015.8 1015.4 0.0
21/09:00pm 17.6 14.5 8.7 56 4.6 SSW 15 15 8 8 1015.8 1015.4 0.0
21/08:30pm 18.8 15.3 8.7 52 5.3 SSW 17 19 9 10 1015.8 1015.4 0.0
21/08:00pm 19.9 16.4 8.9 49 5.8 S 17 22 9 12 1015.5 1015.1 0.0
21/07:30pm 20.9 16.9 8.2 44 6.7 S 19 24 10 13 1015.1 1014.7 0.0
21/07:00pm 22.6 17.5 7.6 38 7.9 SSW 24 32 13 17 1014.7 1014.3 0.0
21/06:30pm 23.7 18.9 7.3 35 8.6 SSW 22 30 12 16 1014.6 1014.2 0.0
21/06:00pm 24.4 19.4 8.0 35 8.7 SSW 24 30 13 16 1014.5 1014.1 0.0
21/05:30pm 24.8 19.8 7.9 34 9.0 SSW 24 37 13 20 1014.6 1014.2 0.0
21/05:00pm 24.9 20.4 8.4 35 8.9 S 22 32 12 17 1014.5 1014.1 0.0
21/04:30pm 25.4 21.0 10.4 39 8.4 S 24 43 13 23 1014.6 1014.2 0.0
21/04:00pm 24.9 21.4 10.8 41 7.9 SSW 20 35 11 19 1014.8 1014.4 0.0
21/03:30pm 23.8 19.4 10.5 43 7.4 SSW 24 32 13 17 1015.4 1015.0 0.0
21/03:00pm 24.2 21.3 12.2 47 6.9 S 19 30 10 16 1015.8 1015.4 0.0
21/02:30pm 24.3 21.5 13.2 50 6.5 SSW 20 30 11 16 1016.2 1015.8 0.0
21/02:00pm 23.3 21.4 12.9 52 6.0 SSW 15 22 8 12 1016.7 1016.3 0.0
21/01:30pm 22.3 20.0 13.1 56 5.3 SSE 17 26 9 14 1016.9 1016.5 0.0
21/01:00pm 21.4 19.3 12.5 57 5.1 S 15 20 8 11 1017.3 1016.8 0.0
21/12:30pm 20.7 18.8 12.9 61 4.5 S 15 20 8 11 1017.7 1017.2 0.0
21/12:00pm 20.2 18.5 12.4 61 4.4 SSE 13 19 7 10 1018.0 1017.5 0.0
21/11:30am 20.1 18.4 12.6 62 4.2 S 13 20 7 11 1018.4 1018.0 0.0
21/11:00am 19.4 17.5 11.9 62 4.2 SE 13 19 7 10 1018.6 1018.2 0.0
21/10:30am 19.7 17.6 12.5 63 4.1 ESE 15 20 8 11 1018.6 1018.2 0.0
21/10:00am 19.2 16.6 12.0 63 4.0 ESE 17 24 9 13 1018.5 1018.1 0.0
21/09:30am 19.4 16.7 12.9 66 3.7 ESE 19 26 10 14 1018.5 1018.1 0.0
21/09:00am 18.3 15.2 12.1 67 3.4 SE 20 28 11 15 1018.3 1017.9 10.6
21/08:30am 17.5 14.5 12.4 72 2.8 SE 20 30 11 16 1018.4 1018.0 10.6
21/08:00am 16.7 14.3 12.5 76 2.3 SE 17 24 9 13 1018.4 1018.0 10.6
21/07:30am 16.0 13.0 12.4 79 2.0 SE 20 28 11 15 1018.4 1018.0 10.6
21/07:00am 15.7 13.8 14.1 90 0.9 S 17 22 9 12 1018.0 1017.5 10.6
21/06:30am 15.4 13.4 13.9 91 0.8 SSW 17 22 9 12 1017.8 1017.3 10.6
21/06:00am 15.9 14.2 13.7 87 1.2 SSE 15 19 8 10 1017.3 1016.8 10.6
21/05:30am 16.0 14.7 13.7 86 1.3 SSE 13 19 7 10 1017.0 1016.6 10.6
21/05:00am 16.1 13.4 13.4 84 1.5 SE 20 28 11 15 1016.9 1016.5 10.6
21/04:48am 16.2 14.4 14.4 89 1.0 SE 17 24 9 13 1016.9 1016.5 10.6
21/04:30am 16.2 14.5 14.6 90 0.9 SSE 17 22 9 12 1016.9 1016.5 10.6
21/04:10am 15.9 13.6 14.1 89 1.0 S 19 24 10 13 1016.9 1016.5 10.6
21/04:00am 15.8 13.2 13.8 88 1.1 S 20 26 11 14 1017.0 1016.6 10.6
21/03:30am 15.7 12.1 13.0 84 1.5 SSW 24 30 13 16 1016.9 1016.5 10.6
21/03:00am 15.5 12.1 11.3 76 2.3 SSW 20 32 11 17 1017.3 1016.8 10.6
21/02:30am 16.0 12.6 10.5 70 2.9 SSW 19 24 10 13 1017.4 1016.9 10.6
21/02:20am 16.2 12.6 10.5 69 3.0 SW 20 28 11 15 1017.5 1017.0 10.6
21/02:00am 16.4 12.8 10.7 69 3.0 SW 20 26 11 14 1017.6 1017.1 10.6
21/01:30am 16.9 14.0 11.0 68 3.2 SW 17 22 9 12 1018.2 1017.8 10.6
21/01:00am 17.4 14.8 12.1 71 2.9 SSW 17 22 9 12 1018.5 1018.1 10.6
21/12:46am 17.6 15.3 11.9 69 3.1 SSW 15 20 8 11 1018.7 1018.3 10.6
21/12:31am 17.7 15.6 12.4 71 3.0 SSW 15 19 8 10 1018.9 1018.5 10.6
21/12:30am 17.7 15.5 12.2 70 3.1 SSW 15 19 8 10 1019.0 1018.6 10.6
21/12:04am 18.0 15.2 12.7 71 3.0 SSW 19 24 10 13 1019.2 1018.8 10.6
21/12:00am 18.1 15.3 12.5 70 3.1 SSW 19 24 10 13 1019.4 1019.0 10.6
 
Date/Time
EDT
Temp
°C
App
Temp
°C
Dew
Point
°C
Rel
Hum
%
Delta-T
°C
Wind Press
QNH
hPa
Press
MSL
hPa
Rain since
9am
mm
Dir  Spd
km/h
Gust
km/h
Spd
kts
Gust
kts
20/11:36pm 18.3 15.5 13.2 72 2.9 SSW 20 28 11 15 1019.2 1018.8 10.6
20/11:30pm 18.7 15.9 13.3 71 3.1 SSW 20 28 11 15 1019.2 1018.8 10.6
20/11:00pm 19.3 19.5 18.5 95 0.5 SSW 15 19 8 10 1019.5 1019.1 10.6
20/10:58pm 19.3 19.5 18.5 95 0.5 SSW 15 19 8 10 1019.5 1019.1 10.6
20/10:33pm 19.5 19.7 18.5 94 0.6 SSW 15 19 8 10 1019.3 1018.9 10.4
20/10:30pm 19.5 20.1 18.5 94 0.6 SSW 13 17 7 9 1019.4 1019.0 10.4
20/10:03pm 19.6 20.1 18.4 93 0.7 SSW 13 17 7 9 1019.3 1018.9 10.4
20/10:00pm 19.7 20.3 18.5 93 0.7 SSW 13 19 7 10 1019.3 1018.9 10.4
20/09:42pm 19.6 20.7 18.8 95 0.5 SSW 11 17 6 9 1019.4 1019.0 10.4
20/09:30pm 19.6 20.3 18.8 95 0.5 SSW 13 17 7 9 1019.2 1018.8 10.4
20/09:00pm 19.6 20.3 18.8 95 0.5 SSW 13 17 7 9 1019.3 1018.9 10.4
20/08:30pm 19.6 19.8 18.6 94 0.6 S 15 19 8 10 1018.8 1018.4 10.4
20/08:00pm 19.7 19.5 18.5 93 0.7 S 17 22 9 12 1018.5 1018.1 10.4
20/07:30pm 19.9 20.7 19.1 95 0.5 SSW 13 19 7 10 1018.4 1018.0 10.4

Other Formats:

Comma delimited format used in spreadsheet applications
http://www.bom.gov.au/fwo/IDN60801/IDN60801.95715.axf

JavaScript Object Notation format (JSON) in row-major order
http://www.bom.gov.au/fwo/IDN60801/IDN60801.95715.json